Terminal Aerodrome Forecast
Issued by NWS

Home | Current Version | Previous Version | Text Only | Print | Product List | Glossary On
Versions: 1 2 3 4 5 6 7 8 9 10 11 12 13 14 15 16 17 18 19
508
FTUS43 KSGF 302023 AAA
TAFBBG
TAF AMD
KBBG 302023Z 3020/3118 23011KT 3SM -RADZ BR OVC020
     FM310000 27010KT P6SM OVC015
     FM310700 29006KT P6SM OVC010
     FM310900 29005KT P6SM OVC008
     FM311400 31004KT P6SM SCT010=

USA.gov is the U.S. government's official web portal to all federal, state and local government web resources and services.